Time;durP1;ratioP1;P1;durP2;ratioP2;P2;SDS_P1;SDS_P2;PMS_P1;PMS_P2;Temp;Humidity;BMP_temperature;BMP_pressure;BME280_temperature;BME280_humidity;BME280_pressure;Samples;Min_cycle;Max_cycle;Signal;HPM_P1;HPM_P2
2022/04/24 00:00:34;;;;;;;1.77;1.63;;;16.40;60.80;;;;;;4997455;28;20061;-75
2022/04/24 00:03:12;;;;;;;2.17;1.70;;;16.40;60.80;;;;;;5016224;28;20045;-75
2022/04/24 00:05:39;;;;;;;1.80;1.60;;;16.40;60.90;;;;;;5011646;28;20116;-75
2022/04/24 00:08:08;;;;;;;1.90;1.60;;;16.50;60.90;;;;;;5016529;28;20037;-75
2022/04/24 00:10:38;;;;;;;1.90;1.70;;;16.40;60.90;;;;;;5018499;28;20038;-75
2022/04/24 00:13:11;;;;;;;2.03;1.70;;;16.50;60.90;;;;;;5015369;28;20045;-75
2022/04/24 00:15:39;;;;;;;2.50;1.60;;;16.40;60.80;;;;;;5000718;28;20516;-74
2022/04/24 00:18:12;;;;;;;1.80;1.45;;;16.50;60.90;;;;;;5018423;28;20053;-75
2022/04/24 00:20:39;;;;;;;3.47;1.65;;;16.40;60.70;;;;;;5016851;28;20045;-74
2022/04/24 00:23:11;;;;;;;2.72;1.50;;;16.40;60.70;;;;;;5018373;28;20049;-75
2022/04/24 00:25:37;;;;;;;1.90;1.45;;;16.40;60.80;;;;;;5027191;28;20055;-74
2022/04/24 00:28:05;;;;;;;1.80;1.48;;;16.40;60.80;;;;;;5016002;28;20446;-75
2022/04/24 00:30:35;;;;;;;4.10;1.75;;;16.40;60.80;;;;;;5019402;28;20120;-74
2022/04/24 00:33:02;;;;;;;1.83;1.50;;;16.40;60.70;;;;;;5013449;28;20046;-75
2022/04/24 00:35:34;;;;;;;2.00;1.70;;;16.40;60.70;;;;;;5024213;28;20761;-74
2022/04/24 00:38:02;;;;;;;2.60;1.60;;;16.40;60.80;;;;;;5015199;28;20497;-75
2022/04/24 00:40:48;;;;;;;1.98;1.60;;;16.40;60.80;;;;;;5001034;28;20045;-75
2022/04/24 00:43:16;;;;;;;2.13;1.77;;;16.40;60.60;;;;;;5017775;28;20543;-75
2022/04/24 00:45:50;;;;;;;2.10;1.50;;;16.40;60.70;;;;;;5026043;28;20042;-75
2022/04/24 00:48:21;;;;;;;2.05;1.70;;;16.40;60.80;;;;;;5020815;28;20048;-75
2022/04/24 00:50:49;;;;;;;1.60;1.50;;;16.40;60.70;;;;;;4999324;28;20120;-75
2022/04/24 00:53:17;;;;;;;2.45;1.60;;;16.40;61.50;;;;;;5017810;28;20099;-75
2022/04/24 00:55:46;;;;;;;1.90;1.70;;;16.40;60.60;;;;;;5009545;28;20407;-75
2022/04/24 00:58:14;;;;;;;2.10;1.50;;;16.40;60.60;;;;;;5021106;28;20048;-75
2022/04/24 01:00:41;;;;;;;1.70;1.25;;;16.40;60.70;;;;;;5021081;28;20053;-74
2022/04/24 01:03:13;;;;;;;2.08;1.58;;;16.40;60.70;;;;;;5027696;28;20072;-75
2022/04/24 01:05:41;;;;;;;1.92;1.60;;;16.40;60.70;;;;;;5028035;28;20033;-74
2022/04/24 01:08:12;;;;;;;1.98;1.70;;;16.40;60.60;;;;;;5024080;28;20564;-74
2022/04/24 01:10:40;;;;;;;1.70;1.50;;;16.40;60.60;;;;;;5025234;28;20045;-75
2022/04/24 01:13:11;;;;;;;2.22;1.75;;;16.40;60.60;;;;;;5026438;28;20041;-75
2022/04/24 01:15:37;;;;;;;2.42;1.55;;;16.40;60.60;;;;;;5037953;28;20038;-75
2022/04/24 01:18:07;;;;;;;1.80;1.40;;;16.40;60.60;;;;;;5006890;28;20065;-75
2022/04/24 01:20:35;;;;;;;2.08;1.52;;;16.40;60.60;;;;;;5020448;28;20048;-75
2022/04/24 01:23:08;;;;;;;1.80;1.60;;;16.40;60.40;;;;;;5023397;28;20412;-75
2022/04/24 01:25:44;;;;;;;2.30;1.67;;;16.30;60.40;;;;;;5024102;28;20056;-75
2022/04/24 01:28:12;;;;;;;1.80;1.60;;;16.40;60.60;;;;;;5017142;28;20030;-75
2022/04/24 01:30:38;;;;;;;1.75;1.48;;;16.40;60.40;;;;;;5019204;28;20095;-75
2022/04/24 01:33:11;;;;;;;;;;;16.30;60.50;;;;;;5019556;28;20065;-75
2022/04/24 01:35:43;;;;;;;2.13;1.42;;;16.40;60.60;;;;;;5021364;28;20035;-76
2022/04/24 01:38:11;;;;;;;2.88;1.50;;;16.40;60.50;;;;;;5020107;28;20354;-75
2022/04/24 01:40:44;;;;;;;1.92;1.60;;;16.40;60.60;;;;;;5022945;28;20476;-76
2022/04/24 01:43:11;;;;;;;1.83;1.38;;;16.30;60.50;;;;;;5020494;28;20038;-75
2022/04/24 01:45:37;;;;;;;1.92;1.50;;;16.40;60.50;;;;;;5018274;28;20133;-75
2022/04/24 01:48:11;;;;;;;1.98;1.52;;;16.40;60.50;;;;;;5022595;28;20055;-75
2022/04/24 01:50:45;;;;;;;4.03;1.58;;;16.30;60.50;;;;;;5024473;28;20052;-75
2022/04/24 01:53:11;;;;;;;2.13;1.40;;;16.30;60.50;;;;;;5003111;28;20049;-75
2022/04/24 01:55:50;;;;;;;2.22;1.35;;;16.40;60.50;;;;;;5012051;28;20048;-75
2022/04/24 01:58:20;;;;;;;1.70;1.40;;;16.40;60.50;;;;;;4995703;28;20049;-75
2022/04/24 02:00:47;;;;;;;1.73;1.38;;;16.30;60.50;;;;;;4997611;28;20145;-75
2022/04/24 02:03:17;;;;;;;1.80;1.60;;;16.30;60.40;;;;;;5020633;28;20140;-75
2022/04/24 02:05:52;;;;;;;2.10;1.67;;;16.30;60.10;;;;;;5019424;28;20139;-75
2022/04/24 02:08:19;;;;;;;2.70;1.75;;;16.30;60.20;;;;;;5020204;28;20029;-75
2022/04/24 02:10:52;;;;;;;1.75;1.58;;;16.30;60.10;;;;;;5022208;28;20668;-75
2022/04/24 02:13:22;;;;;;;1.98;1.60;;;16.40;60.20;;;;;;5018879;28;20050;-75
2022/04/24 02:15:50;;;;;;;1.92;1.50;;;16.40;60.20;;;;;;5021183;28;20061;-75
2022/04/24 02:18:16;;;;;;;2.08;1.60;;;16.30;60.20;;;;;;5020642;28;20049;-75
2022/04/24 02:20:51;;;;;;;1.65;1.50;;;16.30;60.30;;;;;;5020204;28;20048;-75
2022/04/24 02:23:22;;;;;;;1.90;1.40;;;16.30;60.20;;;;;;5023977;28;20049;-75
2022/04/24 02:25:49;;;;;;;2.05;1.50;;;16.30;60.20;;;;;;5019588;28;20396;-75
2022/04/24 02:28:23;;;;;;;2.00;1.60;;;16.30;60.30;;;;;;5018137;28;20044;-75
2022/04/24 02:31:02;;;;;;;1.88;1.50;;;16.30;60.00;;;;;;5024135;28;20137;-75
2022/04/24 02:33:43;;;;;;;2.17;1.73;;;16.30;59.90;;;;;;5017963;28;20064;-75
2022/04/24 02:36:12;;;;;;;1.70;1.58;;;16.30;60.00;;;;;;5020065;28;20060;-75
2022/04/24 02:38:52;;;;;;;2.45;1.90;;;16.30;60.10;;;;;;5016652;28;20042;-75
2022/04/24 02:41:38;;;;;;;1.80;1.50;;;16.30;60.20;;;;;;5022070;28;20100;-75
2022/04/24 02:44:06;;;;;;;2.95;2.10;;;16.30;60.10;;;;;;5018653;28;20048;-75
2022/04/24 02:46:48;;;;;;;1.90;1.55;;;16.30;60.20;;;;;;5015708;28;20048;-75
2022/04/24 02:49:21;;;;;;;1.70;1.50;;;16.30;60.30;;;;;;5022249;28;20439;-75
2022/04/24 02:51:50;;;;;;;1.63;1.42;;;16.30;60.10;;;;;;5023754;28;20415;-75
2022/04/24 02:54:22;;;;;;;1.80;1.50;;;16.30;60.10;;;;;;5022483;28;20624;-75
2022/04/24 02:56:49;;;;;;;2.08;1.70;;;16.30;60.10;;;;;;5022647;28;20069;-75
2022/04/24 02:59:17;;;;;;;2.15;1.70;;;16.30;60.10;;;;;;5015046;28;20057;-75
2022/04/24 03:01:48;;;;;;;3.03;1.50;;;16.30;61.00;;;;;;5015096;28;20128;-75
2022/04/24 03:04:15;;;;;;;1.80;1.50;;;16.30;60.20;;;;;;5020525;28;20041;-76
2022/04/24 03:06:49;;;;;;;2.03;1.50;;;16.30;60.10;;;;;;5002966;28;20042;-75
2022/04/24 03:09:21;;;;;;;2.05;1.70;;;16.30;60.20;;;;;;5019273;28;20037;-75
2022/04/24 03:11:48;;;;;;;1.67;1.35;;;16.20;60.00;;;;;;5019164;28;20046;-75
2022/04/24 03:14:17;;;;;;;3.17;1.50;;;16.30;60.20;;;;;;5021115;28;20128;-75
2022/04/24 03:16:44;;;;;;;2.35;1.75;;;16.20;60.20;;;;;;5021882;28;20037;-75
2022/04/24 03:19:11;;;;;;;1.98;1.65;;;16.20;60.00;;;;;;5025401;28;20034;-75
2022/04/24 03:21:44;;;;;;;2.00;1.55;;;16.20;60.10;;;;;;4997447;28;20053;-75
2022/04/24 03:24:12;;;;;;;2.10;1.60;;;16.30;60.20;;;;;;5020076;28;20045;-75
2022/04/24 03:26:39;;;;;;;2.00;1.60;;;16.20;59.90;;;;;;5021537;28;20112;-75
2022/04/24 03:29:11;;;;;;;1.80;1.50;;;16.20;60.00;;;;;;5027756;28;20057;-76
2022/04/24 03:31:43;;;;;;;1.80;1.52;;;16.20;60.00;;;;;;5006921;28;20103;-75
2022/04/24 03:34:11;;;;;;;1.60;1.50;;;16.20;60.10;;;;;;5022302;28;20041;-75
2022/04/24 03:36:40;;;;;;;1.95;1.65;;;16.20;59.90;;;;;;5016122;28;20052;-75
2022/04/24 03:39:07;;;;;;;1.80;1.48;;;16.20;60.00;;;;;;4998737;28;20532;-74
2022/04/24 03:41:36;;;;;;;1.73;1.60;;;16.30;60.00;;;;;;5009299;28;20133;-74
2022/04/24 03:44:11;;;;;;;2.42;1.60;;;16.20;60.00;;;;;;5011807;28;20468;-74
2022/04/24 03:46:38;;;;;;;2.05;1.63;;;16.20;60.00;;;;;;5020967;28;20041;-74
2022/04/24 03:49:11;;;;;;;1.70;1.50;;;16.20;60.50;;;;;;5018645;28;20041;-75
2022/04/24 03:51:40;;;;;;;1.70;1.50;;;16.20;59.80;;;;;;5021581;28;20037;-75
2022/04/24 03:54:11;;;;;;;2.70;1.80;;;16.20;59.70;;;;;;5020275;28;20049;-74
2022/04/24 03:56:45;;;;;;;1.92;1.50;;;16.20;59.80;;;;;;5018110;28;20036;-75
2022/04/24 03:59:12;;;;;;;1.90;1.50;;;16.20;59.90;;;;;;5017641;28;20124;-75
2022/04/24 04:01:48;;;;;;;2.15;1.77;;;16.20;59.90;;;;;;5015411;28;20111;-75
2022/04/24 04:04:32;;;;;;;2.13;1.70;;;16.20;59.90;;;;;;5001778;28;20058;-75
2022/04/24 04:07:01;;;;;;;1.90;1.60;;;16.20;59.90;;;;;;5012534;28;20049;-75
2022/04/24 04:09:38;;;;;;;2.70;1.67;;;16.20;59.80;;;;;;5015630;28;20057;-75
2022/04/24 04:12:13;;;;;;;2.67;1.70;;;16.20;59.90;;;;;;5019012;28;20049;-75
2022/04/24 04:14:40;;;;;;;1.92;1.67;;;16.20;59.80;;;;;;5019370;28;20392;-74
2022/04/24 04:17:08;;;;;;;2.15;1.70;;;16.20;59.70;;;;;;5002830;28;20077;-75
2022/04/24 04:19:44;;;;;;;2.17;1.60;;;16.10;59.70;;;;;;5020354;28;20774;-74
2022/04/24 04:22:11;;;;;;;2.00;1.63;;;16.20;59.60;;;;;;5023386;28;20059;-75
2022/04/24 04:24:48;;;;;;;2.22;1.90;;;16.20;59.70;;;;;;5026579;28;20044;-75
2022/04/24 04:27:27;;;;;;;3.28;1.60;;;16.20;59.70;;;;;;5023794;28;20053;-75
2022/04/24 04:29:55;;;;;;;1.70;1.52;;;16.20;59.90;;;;;;5015221;28;20132;-74
2022/04/24 04:32:35;;;;;;;2.42;1.70;;;16.20;59.80;;;;;;5021326;28;20050;-74
2022/04/24 04:35:11;;;;;;;1.85;1.60;;;16.20;60.50;;;;;;5024253;28;20052;-74
2022/04/24 04:37:42;;;;;;;2.03;1.80;;;16.20;59.70;;;;;;5024223;28;20049;-75
2022/04/24 04:40:12;;;;;;;1.98;1.70;;;16.10;59.60;;;;;;5023909;28;20120;-75
2022/04/24 04:42:51;;;;;;;2.08;1.70;;;16.20;59.80;;;;;;5005219;28;20506;-75
2022/04/24 04:45:20;;;;;;;2.13;1.90;;;16.20;59.70;;;;;;5023963;28;20042;-75
2022/04/24 04:47:49;;;;;;;2.13;1.92;;;16.10;59.60;;;;;;5020769;28;20052;-74
2022/04/24 04:50:34;;;;;;;2.38;1.80;;;16.20;59.70;;;;;;5022177;28;20087;-74
2022/04/24 04:53:11;;;;;;;2.15;1.85;;;16.20;59.70;;;;;;5009378;28;20069;-75
2022/04/24 04:55:39;;;;;;;2.88;2.13;;;16.10;59.50;;;;;;5020166;28;20136;-74
2022/04/24 04:58:12;;;;;;;2.63;1.70;;;16.10;59.60;;;;;;5001450;28;20041;-74
2022/04/24 05:00:46;;;;;;;2.38;1.70;;;16.10;59.60;;;;;;5020910;28;20088;-75
2022/04/24 05:03:31;;;;;;;2.20;2.00;;;16.10;59.50;;;;;;5023035;28;20061;-75
2022/04/24 05:06:04;;;;;;;2.08;1.80;;;16.10;59.50;;;;;;5029269;28;20048;-74
2022/04/24 05:08:49;;;;;;;1.85;1.65;;;16.10;59.60;;;;;;5020742;28;20060;-75
2022/04/24 05:11:33;;;;;;;2.70;2.00;;;16.10;59.60;;;;;;5003643;28;20451;-74
2022/04/24 05:14:05;;;;;;;2.10;1.65;;;16.10;59.60;;;;;;5017950;28;20128;-76
2022/04/24 05:16:36;;;;;;;;;;;16.10;59.60;;;;;;5018991;28;20132;-75
2022/04/24 05:19:07;;;;;;;3.67;2.08;;;16.10;59.50;;;;;;5020710;28;19921;-75
2022/04/24 05:21:34;;;;;;;4.47;1.95;;;16.10;59.50;;;;;;5017974;28;20048;-75
2022/04/24 05:24:11;;;;;;;1.90;1.70;;;16.10;59.40;;;;;;5022409;28;20048;-75
2022/04/24 05:26:42;;;;;;;2.25;1.98;;;16.10;59.60;;;;;;5021317;28;20053;-75
2022/04/24 05:29:13;;;;;;;2.15;1.95;;;16.10;59.50;;;;;;5022374;28;20054;-76
2022/04/24 05:31:42;;;;;;;2.10;1.80;;;16.10;59.50;;;;;;5021372;28;20041;-75
2022/04/24 05:34:09;;;;;;;3.05;2.00;;;16.10;59.40;;;;;;5025984;28;20052;-75
2022/04/24 05:36:52;;;;;;;2.38;1.90;;;16.10;59.40;;;;;;5022076;28;20045;-75
2022/04/24 05:39:27;;;;;;;2.17;1.80;;;16.10;59.50;;;;;;5027451;28;20083;-74
2022/04/24 05:41:54;;;;;;;2.00;1.70;;;16.10;59.50;;;;;;5025262;28;20030;-75
2022/04/24 05:44:25;;;;;;;2.30;2.00;;;16.10;59.40;;;;;;5024667;28;20136;-76
2022/04/24 05:46:52;;;;;;;2.35;1.85;;;16.10;59.50;;;;;;5027555;28;20033;-75
2022/04/24 05:49:21;;;;;;;2.05;1.80;;;16.10;59.50;;;;;;5005012;28;20133;-75
2022/04/24 05:51:47;;;;;;;2.03;1.83;;;16.10;59.40;;;;;;5021071;28;20046;-76
2022/04/24 05:54:35;;;;;;;2.70;2.00;;;16.10;59.40;;;;;;5019201;28;20057;-75
2022/04/24 05:57:02;;;;;;;4.20;2.08;;;16.10;59.40;;;;;;4998937;28;20053;-75
2022/04/24 05:59:49;;;;;;;2.25;1.90;;;16.10;59.40;;;;;;5017397;28;20131;-74
2022/04/24 06:02:16;;;;;;;2.58;1.83;;;16.10;59.40;;;;;;5015327;28;20108;-75
2022/04/24 06:04:43;;;;;;;2.35;1.77;;;16.10;59.30;;;;;;5024143;28;20525;-75
2022/04/24 06:07:11;;;;;;;3.45;1.90;;;16.10;59.40;;;;;;4999492;28;20049;-75
2022/04/24 06:09:38;;;;;;;2.40;1.90;;;16.10;59.40;;;;;;4995449;28;20408;-74
2022/04/24 06:12:11;;;;;;;2.00;1.80;;;16.10;59.30;;;;;;5002285;28;20045;-75
2022/04/24 06:14:38;;;;;;;2.75;2.08;;;16.10;59.20;;;;;;5011065;28;20079;-75
2022/04/24 06:17:12;;;;;;;1.92;1.73;;;16.10;59.20;;;;;;5012873;28;20037;-74
2022/04/24 06:19:39;;;;;;;2.58;1.90;;;16.10;59.20;;;;;;5001187;28;20042;-74
2022/04/24 06:22:09;;;;;;;2.20;1.90;;;16.10;59.20;;;;;;5023956;28;20042;-74
2022/04/24 06:24:36;;;;;;;2.10;1.80;;;16.10;59.20;;;;;;5019501;28;20041;-74
2022/04/24 06:27:07;;;;;;;2.15;1.85;;;16.20;59.20;;;;;;5000620;28;20111;-73
2022/04/24 06:29:34;;;;;;;2.00;1.80;;;16.10;59.20;;;;;;5004308;28;20129;-74
2022/04/24 06:32:14;;;;;;;2.13;1.92;;;16.10;59.20;;;;;;5017919;28;20042;-75
2022/04/24 06:34:41;;;;;;;2.42;2.00;;;16.00;59.00;;;;;;5005209;28;20050;-74
2022/04/24 06:37:08;;;;;;;2.05;1.85;;;16.10;59.20;;;;;;5018439;28;20184;-73
2022/04/24 06:39:41;;;;;;;2.17;1.95;;;16.10;59.00;;;;;;5015487;28;20069;-74
2022/04/24 06:42:09;;;;;;;2.45;2.00;;;16.10;59.00;;;;;;5008583;28;20102;-76
2022/04/24 06:44:50;;;;;;;2.53;2.10;;;16.10;59.00;;;;;;5011704;28;20048;-75
2022/04/24 06:47:36;;;;;;;2.08;1.75;;;16.10;59.10;;;;;;5011817;28;20072;-74
2022/04/24 06:50:04;;;;;;;2.10;1.80;;;16.10;59.00;;;;;;5021874;28;20037;-75
2022/04/24 06:52:36;;;;;;;2.00;1.80;;;16.10;59.00;;;;;;5011465;28;20477;-75
2022/04/24 06:55:11;;;;;;;3.30;1.90;;;16.10;59.00;;;;;;5021337;28;20045;-75
2022/04/24 06:57:38;;;;;;;2.05;1.85;;;16.10;59.10;;;;;;5014841;28;20048;-75
2022/04/24 07:00:12;;;;;;;2.65;1.88;;;16.10;59.00;;;;;;5018579;28;20116;-75
2022/04/24 07:02:41;;;;;;;2.03;1.80;;;16.10;59.00;;;;;;5019994;28;20136;-76
2022/04/24 07:05:11;;;;;;;;;;;16.10;58.80;;;;;;5022033;28;20056;-75
2022/04/24 07:07:37;;;;;;;2.70;1.80;;;16.10;58.90;;;;;;5020776;28;20455;-76
2022/04/24 07:10:05;;;;;;;2.08;1.88;;;16.10;58.90;;;;;;5003248;28;20382;-75
2022/04/24 07:12:32;;;;;;;1.98;1.70;;;16.10;59.00;;;;;;5009596;28;20034;-75
2022/04/24 07:14:59;;;;;;;2.28;1.67;;;16.20;59.10;;;;;;5019738;28;20049;-75
2022/04/24 07:17:26;;;;;;;2.42;1.98;;;16.10;59.00;;;;;;5015482;28;20045;-75
2022/04/24 07:19:55;;;;;;;2.80;2.05;;;16.10;59.00;;;;;;5021526;28;20051;-74
2022/04/24 07:22:29;;;;;;;2.63;1.85;;;16.10;59.50;;;;;;5016442;28;20072;-75
2022/04/24 07:25:10;;;;;;;2.10;1.90;;;16.10;59.00;;;;;;5019644;28;20046;-75
2022/04/24 07:27:50;;;;;;;4.53;1.80;;;16.20;59.10;;;;;;5013346;28;20176;-76
2022/04/24 07:30:29;;;;;;;2.47;1.90;;;16.20;59.10;;;;;;5019386;28;20033;-76
2022/04/24 07:33:07;;;;;;;2.30;1.90;;;16.20;59.10;;;;;;5004938;28;20511;-75
2022/04/24 07:35:38;;;;;;;2.72;1.70;;;16.20;59.10;;;;;;5022442;28;20413;-75
2022/04/24 07:38:06;;;;;;;2.58;1.80;;;16.20;59.10;;;;;;5026003;28;20120;-74
2022/04/24 07:40:35;;;;;;;2.30;1.95;;;16.20;59.30;;;;;;5026375;28;20067;-75
2022/04/24 07:43:11;;;;;;;3.00;1.95;;;16.20;59.20;;;;;;5017560;28;20052;-75
2022/04/24 07:45:48;;;;;;;3.40;1.88;;;16.20;59.30;;;;;;5016397;28;20046;-75
2022/04/24 07:48:18;;;;;;;3.15;1.73;;;16.20;59.30;;;;;;4999635;28;20046;-75
2022/04/24 07:50:49;;;;;;;2.42;1.80;;;16.20;59.30;;;;;;5014732;28;20041;-75
2022/04/24 07:53:23;;;;;;;3.03;2.00;;;16.20;59.30;;;;;;5024429;28;20046;-74
2022/04/24 07:55:53;;;;;;;2.20;1.88;;;16.20;59.20;;;;;;5016539;28;20050;-75
2022/04/24 07:58:20;;;;;;;2.85;1.83;;;16.20;59.20;;;;;;5014789;28;20069;-76
2022/04/24 08:00:48;;;;;;;2.75;2.10;;;16.20;59.10;;;;;;5019721;28;20087;-75
2022/04/24 08:03:24;;;;;;;2.00;1.73;;;16.30;59.30;;;;;;5019579;28;20077;-75
2022/04/24 08:05:52;;;;;;;2.50;1.90;;;16.30;59.20;;;;;;5019605;28;20041;-74
2022/04/24 08:08:21;;;;;;;2.28;1.92;;;16.30;59.20;;;;;;5015406;28;20065;-76
2022/04/24 08:10:49;;;;;;;2.45;1.75;;;16.20;59.30;;;;;;5002581;28;20099;-75
2022/04/24 08:13:17;;;;;;;2.53;2.03;;;16.30;59.30;;;;;;5016699;28;20041;-75
2022/04/24 08:15:54;;;;;;;2.65;1.95;;;16.30;59.20;;;;;;5018362;28;20179;-75
2022/04/24 08:18:21;;;;;;;2.15;1.90;;;16.30;59.20;;;;;;5017459;28;20046;-76
2022/04/24 08:20:48;;;;;;;2.58;1.80;;;16.30;59.20;;;;;;5019329;28;20034;-75
2022/04/24 08:23:36;;;;;;;2.30;2.10;;;16.30;59.20;;;;;;5016215;28;20068;-75
2022/04/24 08:26:02;;;;;;;2.00;1.70;;;16.30;59.20;;;;;;4998419;28;20099;-75
2022/04/24 08:28:29;;;;;;;2.50;2.08;;;16.30;59.20;;;;;;5015974;28;20056;-75
2022/04/24 08:30:57;;;;;;;2.10;1.80;;;16.30;59.10;;;;;;5017326;28;20137;-75
2022/04/24 08:33:23;;;;;;;2.20;1.88;;;16.30;59.30;;;;;;5013982;28;20065;-75
2022/04/24 08:35:50;;;;;;;2.65;2.00;;;16.30;59.20;;;;;;5021778;28;20048;-74
2022/04/24 08:38:20;;;;;;;2.63;1.90;;;16.30;59.20;;;;;;5011104;28;20041;-75
2022/04/24 08:40:49;;;;;;;2.45;1.85;;;16.30;59.30;;;;;;5013435;28;20044;-73
2022/04/24 08:43:17;;;;;;;2.33;2.13;;;16.30;59.20;;;;;;5013285;28;20141;-74
2022/04/24 08:45:52;;;;;;;2.88;1.88;;;16.30;59.20;;;;;;5019829;28;20095;-74
2022/04/24 08:48:21;;;;;;;2.47;1.83;;;16.30;59.10;;;;;;5016297;28;20060;-74
2022/04/24 08:50:48;;;;;;;2.40;2.08;;;16.30;59.10;;;;;;5019100;28;20046;-74
2022/04/24 08:53:16;;;;;;;2.58;2.00;;;16.30;59.10;;;;;;5015066;28;20052;-74
2022/04/24 08:55:42;;;;;;;1.92;1.73;;;16.40;59.20;;;;;;5003474;28;20199;-75
2022/04/24 08:58:12;;;;;;;2.30;1.90;;;16.40;59.20;;;;;;5016182;28;20056;-74
2022/04/24 09:00:43;;;;;;;2.83;2.03;;;16.30;59.10;;;;;;5016641;28;20072;-74
2022/04/24 09:03:11;;;;;;;3.85;2.13;;;16.40;59.10;;;;;;4977318;28;111494;-74
2022/04/24 09:05:38;;;;;;;3.17;2.10;;;16.40;59.20;;;;;;4998947;28;20049;-74
2022/04/24 09:08:12;;;;;;;2.40;2.00;;;16.40;59.10;;;;;;5005256;28;20042;-74
2022/04/24 09:10:50;;;;;;;2.50;1.85;;;16.40;59.10;;;;;;5003244;28;20040;-74
2022/04/24 09:13:30;;;;;;;2.47;2.00;;;16.40;59.10;;;;;;4999475;28;20034;-76
2022/04/24 09:16:11;;;;;;;2.97;2.05;;;16.40;59.10;;;;;;4983562;28;20054;-74
2022/04/24 09:18:42;;;;;;;2.92;1.92;;;16.40;59.10;;;;;;4983965;28;20054;-75
2022/04/24 09:21:12;;;;;;;2.60;2.05;;;16.50;59.10;;;;;;4983398;28;20477;-74
2022/04/24 09:23:42;;;;;;;3.03;2.13;;;16.40;58.90;;;;;;4984577;28;20030;-74
2022/04/24 09:26:15;;;;;;;;;;;16.50;58.90;;;;;;5002540;28;20132;-76
2022/04/24 09:28:47;;;;;;;5.63;2.30;;;16.50;59.10;;;;;;4993765;28;20296;-75
2022/04/24 09:31:15;;;;;;;4.82;2.50;;;16.50;59.10;;;;;;5003632;28;20108;-74
2022/04/24 09:33:52;;;;;;;6.70;2.80;;;16.50;58.90;;;;;;4996358;28;20043;-74
2022/04/24 09:36:25;;;;;;;7.90;2.67;;;16.50;58.70;;;;;;5009050;28;20046;-75
2022/04/24 09:38:52;;;;;;;3.75;2.55;;;16.50;58.70;;;;;;5014696;28;20038;-75
2022/04/24 09:41:22;;;;;;;6.80;2.72;;;16.40;58.60;;;;;;5006909;28;20034;-75
2022/04/24 09:44:12;;;;;;;3.50;2.40;;;16.50;58.70;;;;;;4996543;28;20052;-75
2022/04/24 09:47:00;;;;;;;3.50;2.50;;;16.50;58.70;;;;;;4996692;28;20095;-74
2022/04/24 09:49:47;;;;;;;5.88;2.47;;;16.50;58.80;;;;;;5000030;28;20184;-75
2022/04/24 09:52:20;;;;;;;3.80;2.38;;;16.50;58.70;;;;;;5003647;28;20062;-75
2022/04/24 09:54:53;;;;;;;12.20;2.60;;;16.50;58.70;;;;;;5002657;28;20054;-75
2022/04/24 09:57:25;;;;;;;3.78;2.33;;;16.50;58.80;;;;;;5002072;28;20052;-74
2022/04/24 09:59:53;;;;;;;5.57;2.63;;;16.50;58.70;;;;;;4999225;28;20127;-74
2022/04/24 10:02:21;;;;;;;2.78;2.45;;;16.50;58.60;;;;;;4997161;28;20046;-75
2022/04/24 10:04:53;;;;;;;3.72;2.35;;;16.60;58.70;;;;;;5010354;28;20034;-74
2022/04/24 10:07:20;;;;;;;3.72;2.53;;;16.50;58.60;;;;;;5001368;28;20161;-75
2022/04/24 10:09:49;;;;;;;4.75;2.50;;;16.50;58.70;;;;;;5006768;28;20165;-74
2022/04/24 10:12:19;;;;;;;5.40;2.60;;;16.60;58.70;;;;;;4996903;28;20037;-75
2022/04/24 10:14:54;;;;;;;2.40;2.10;;;16.60;58.80;;;;;;5003746;28;20072;-75
2022/04/24 10:18:13;;;;;;;3.58;2.40;;;16.50;58.70;;;;;;5001624;28;20049;-74
2022/04/24 10:20:56;;;;;;;3.15;2.47;;;16.60;58.70;;;;;;4996278;28;20077;-74
2022/04/24 10:23:41;;;;;;;6.40;2.67;;;16.60;58.70;;;;;;4997428;28;20424;-75
2022/04/24 10:26:17;;;;;;;4.50;2.75;;;16.60;58.70;;;;;;4998505;28;20045;-74
2022/04/24 10:28:48;;;;;;;5.72;2.70;;;16.60;58.70;;;;;;4999330;28;20508;-74
2022/04/24 10:31:42;;;;;;;2.90;2.40;;;16.60;58.70;;;;;;4995661;28;20048;-74
2022/04/24 10:34:13;;;;;;;2.95;2.47;;;16.60;58.60;;;;;;4994801;28;20041;-74
2022/04/24 10:36:55;;;;;;;4.35;2.50;;;16.60;58.60;;;;;;5015180;28;20038;-74
2022/04/24 10:39:25;;;;;;;3.30;2.58;;;16.60;58.60;;;;;;5000993;28;20534;-74
2022/04/24 10:42:13;;;;;;;3.08;2.75;;;16.60;58.60;;;;;;5001004;28;20081;-74
2022/04/24 10:44:50;;;;;;;2.72;2.40;;;16.70;58.70;;;;;;5003567;28;20100;-74
2022/04/24 10:47:20;;;;;;;2.60;2.28;;;16.60;58.60;;;;;;4999979;28;20038;-74
2022/04/24 10:50:06;;;;;;;3.45;2.58;;;16.60;58.60;;;;;;5000096;28;20049;-74
2022/04/24 10:52:44;;;;;;;3.13;2.65;;;16.60;58.60;;;;;;5012084;28;20033;-74
2022/04/24 10:55:14;;;;;;;3.30;2.45;;;16.70;58.70;;;;;;5018341;28;20045;-74
2022/04/24 10:57:55;;;;;;;2.70;2.10;;;16.70;58.70;;;;;;4998512;28;20167;-74
2022/04/24 11:00:23;;;;;;;;;;;16.70;58.60;;;;;;4995700;28;20039;-74
2022/04/24 11:02:52;;;;;;;3.17;2.60;;;16.70;58.60;;;;;;4999308;28;19921;-74
2022/04/24 11:05:26;;;;;;;2.83;2.38;;;16.70;58.60;;;;;;4998682;28;20038;-74
2022/04/24 11:08:17;;;;;;;2.38;2.17;;;16.70;58.60;;;;;;4992649;28;20390;-74
2022/04/24 11:10:49;;;;;;;4.22;2.78;;;16.70;58.60;;;;;;4998987;28;20046;-74
2022/04/24 11:13:22;;;;;;;2.92;2.33;;;16.70;58.50;;;;;;4990836;28;20552;-74
2022/04/24 11:15:53;;;;;;;3.45;2.60;;;16.70;58.60;;;;;;5001192;28;20133;-75
2022/04/24 11:18:24;;;;;;;5.50;2.38;;;16.70;58.60;;;;;;5002773;28;20714;-74
2022/04/24 11:20:56;;;;;;;3.67;2.80;;;16.70;58.60;;;;;;4999114;28;20040;-74
2022/04/24 11:23:43;;;;;;;6.80;2.28;;;16.70;58.60;;;;;;4992805;28;20052;-75
2022/04/24 11:26:12;;;;;;;7.78;2.47;;;16.70;58.60;;;;;;5004404;28;20132;-75
2022/04/24 11:28:49;;;;;;;3.90;2.88;;;16.70;58.70;;;;;;4998077;28;20125;-74
2022/04/24 11:31:23;;;;;;;10.85;3.42;;;16.80;58.30;;;;;;4993266;28;20050;-75
2022/04/24 11:34:00;;;;;;;5.22;3.80;;;16.90;57.90;;;;;;5009611;28;20069;-75
2022/04/24 11:36:39;;;;;;;9.00;3.90;;;16.90;57.40;;;;;;5008041;28;20042;-74
2022/04/24 11:39:12;;;;;;;6.72;3.67;;;16.90;57.40;;;;;;5004489;28;20583;-75
2022/04/24 11:41:43;;;;;;;13.05;3.70;;;16.90;57.30;;;;;;4998465;28;20041;-74
2022/04/24 11:52:41;;;;;;;3.85;3.00;;;16.80;57.50;;;;;;4996198;28;20057;-74
2022/04/24 11:55:13;;;;;;;6.30;2.83;;;16.80;57.70;;;;;;4995057;28;20042;-75
2022/04/24 11:57:41;;;;;;;3.70;2.63;;;16.80;58.00;;;;;;5007608;28;20037;-75
2022/04/24 12:00:18;;;;;;;5.55;3.00;;;16.80;58.00;;;;;;5011040;28;20104;-75
2022/04/24 12:02:50;;;;;;;4.45;2.85;;;16.80;57.70;;;;;;4999615;28;20061;-75
2022/04/24 12:05:18;;;;;;;3.75;2.45;;;16.80;57.80;;;;;;4983883;28;20466;-75
2022/04/24 12:07:56;;;;;;;4.63;2.78;;;16.80;57.90;;;;;;4979961;28;20046;-75
2022/04/24 12:10:25;;;;;;;3.00;2.40;;;16.80;58.10;;;;;;4984292;28;20548;-75
2022/04/24 12:12:53;;;;;;;3.55;2.38;;;16.80;58.00;;;;;;4996236;28;20126;-75
2022/04/24 12:15:22;;;;;;;4.38;2.47;;;16.80;58.10;;;;;;5006267;28;20076;-74
2022/04/24 12:17:50;;;;;;;2.97;2.40;;;16.80;58.10;;;;;;5002678;28;20057;-75
2022/04/24 12:20:20;;;;;;;2.80;2.45;;;16.80;58.20;;;;;;4995852;28;20044;-75
2022/04/24 12:22:50;;;;;;;3.90;2.53;;;16.80;58.20;;;;;;4996686;28;20050;-74
2022/04/24 12:25:26;;;;;;;4.97;2.33;;;16.80;58.20;;;;;;4998451;28;20052;-75
2022/04/24 12:28:11;;;;;;;4.18;2.30;;;16.80;58.20;;;;;;4993955;28;20529;-75
2022/04/24 12:30:51;;;;;;;3.67;2.20;;;16.80;58.30;;;;;;4998864;28;20098;-76
2022/04/24 12:33:19;;;;;;;3.47;2.40;;;16.80;58.30;;;;;;4998149;28;20053;-76
2022/04/24 12:35:54;;;;;;;3.50;2.38;;;16.80;58.10;;;;;;4986199;28;20504;-76
2022/04/24 12:38:23;;;;;;;4.28;2.20;;;16.80;58.20;;;;;;4998256;28;20038;-76
2022/04/24 12:40:57;;;;;;;4.20;2.40;;;16.80;58.20;;;;;;4997862;28;20054;-76
2022/04/24 12:43:43;;;;;;;5.65;2.47;;;16.80;58.20;;;;;;4988139;28;20541;-76
2022/04/24 12:46:13;;;;;;;2.42;2.20;;;16.80;58.20;;;;;;4999171;28;20060;-75
2022/04/24 12:48:47;;;;;;;3.00;2.17;;;16.90;58.30;;;;;;5003415;28;20041;-75
2022/04/24 12:51:20;;;;;;;2.63;2.30;;;16.70;58.10;;;;;;4983099;28;20042;-75
2022/04/24 12:53:50;;;;;;;3.33;2.20;;;16.80;58.10;;;;;;5000439;28;20144;-75
2022/04/24 12:56:34;;;;;;;2.92;2.42;;;16.90;58.30;;;;;;5002861;28;20042;-75
2022/04/24 12:59:04;;;;;;;4.50;2.40;;;16.90;58.30;;;;;;5004411;28;20123;-75
2022/04/24 13:01:52;;;;;;;3.40;2.58;;;16.80;58.20;;;;;;5005380;28;20118;-75
2022/04/24 13:04:19;;;;;;;2.90;2.30;;;16.80;58.10;;;;;;5005830;28;20042;-75
2022/04/24 13:06:56;;;;;;;2.38;2.00;;;16.80;58.00;;;;;;5023723;28;20072;-75
2022/04/24 13:09:23;;;;;;;3.70;2.20;;;16.80;58.10;;;;;;5023062;28;20037;-74
2022/04/24 13:11:50;;;;;;;3.30;1.92;;;16.80;58.00;;;;;;5021268;28;20041;-74
2022/04/24 13:14:17;;;;;;;4.30;2.20;;;16.80;58.10;;;;;;5021617;28;20041;-75
2022/04/24 13:19:39;;;;;;;6.15;3.00;;;16.90;57.90;;;;;;5020809;28;20037;-75
2022/04/24 13:22:13;;;;;;;5.53;3.00;;;16.90;57.20;;;;;;5021821;28;20042;-76
2022/04/24 13:24:46;;;;;;;8.00;3.30;;;16.80;57.00;;;;;;5025156;28;20050;-75